Lecko — PBKR — position and weather

sailwx.info

Track history (hours):
 
Tides and Currents Weather Stations Pressure Air Temp Water Temp Dewpoint Dewpoint Depression Visibility Wind Speed Wind Dir Waves Ship Positions

Lecko

Last reported at 2017-Oct-17 10:18 UTC. Time now 2017-Oct-17 13:35 UTC.
Position N 57°25' E 017°40'.

Length 89 m; draft 6.1 m.

Type: Cargo ship. MMSI: 244063000.

Date/timePositionNaut miles runAvg speedWind from/ knotsBaromVisibWave heightAir tempDewpointWater temp
2017-Oct-17 10:18N 57°25' E 017°40'3 8.5
2017-Oct-17 09:56N 57°28' E 017°42'4 8.4
2017-Oct-17 09:30N 57°31' E 017°45'125 8.1
2017-Oct-16 18:00N 59°20' E 019°44'28 7.1
2017-Oct-16 14:00N 59°48' E 019°38'5 8.9
2017-Oct-16 13:29N 59°51' E 019°32'7 8.9
2017-Oct-16 12:42N 59°57' E 019°23'3 9.0
2017-Oct-16 12:24N 59°59' E 019°20'4 8.6
2017-Oct-16 11:59N 60°02' E 019°15'4 8.5
2017-Oct-16 11:30N 60°05' E 019°10'4 8.4
2017-Oct-16 11:00N 60°08' E 019°05'4 8.6
2017-Oct-16 10:30N 60°12' E 019°01'4 8.5
2017-Oct-16 10:00N 60°16' E 019°00'4 8.6
2017-Oct-16 09:30N 60°20' E 019°00'  
2017-Oct-11 19:49N 60°21' E 019°01'410.6
2017-Oct-11 19:27N 60°17' E 019°02'510.6
2017-Oct-11 19:00N 60°13' E 019°05'1310.3
2017-Oct-11 17:44N 60°03' E 019°20'310.5
2017-Oct-11 17:25N 60°00' E 019°25'410.1
2017-Oct-11 16:58N 59°56' E 019°30'298 9.2
2017-Oct-10 08:32N 55°33' E 015°11'310.3
2017-Oct-10 08:15N 55°31' E 015°07'210.4
2017-Oct-10 08:00N 55°30' E 015°03'510.3
2017-Oct-10 07:30N 55°28' E 014°55'510.4
2017-Oct-10 07:00N 55°25' E 014°47'510.2
2017-Oct-10 06:30N 55°22' E 014°39'510.3
2017-Oct-10 06:00N 55°19' E 014°33'510.4
2017-Oct-10 05:30N 55°15' E 014°27'13 9.7
2017-Oct-10 04:08N 55°11' E 014°05'3710.5
2017-Oct-10 00:38N 55°14' E 013°00'110.4
2017-Oct-10 00:29N 55°15' E 012°58'610.5
2017-Oct-09 23:57N 55°16' E 012°48'510.4
2017-Oct-09 23:30N 55°18' E 012°41'4 8.4
2017-Oct-09 23:00N 55°22' E 012°39'510.0
2017-Oct-09 22:30N 55°27' E 012°40'5 9.7
2017-Oct-09 22:00N 55°32' E 012°42'5 9.4
2017-Oct-09 21:30N 55°36' E 012°42'5 9.5
2017-Oct-09 21:00N 55°41' E 012°41'510.2
2017-Oct-09 20:30N 55°46' E 012°41'510.2
2017-Oct-09 20:00N 55°51' E 012°39'510.4
2017-Oct-09 19:30N 55°56' E 012°38'510.4
2017-Oct-09 19:00N 56°01' E 012°38'5 9.6
2017-Oct-09 18:30N 56°06' E 012°34'6810.6
2017-Oct-09 12:05N 57°10' E 011°53'210.9
2017-Oct-09 11:56N 57°11' E 011°52'611.0
2017-Oct-09 11:24N 57°17' E 011°48'410.5
2017-Oct-09 11:00N 57°20' E 011°45'510.7
2017-Oct-09 10:30N 57°25' E 011°42'510.6
2017-Oct-09 10:00N 57°30' E 011°38'510.1
2017-Oct-09 09:30N 57°35' E 011°39'510.1
2017-Oct-09 09:00N 57°39' E 011°45'2 3.3
2017-Oct-09 08:30N 57°40' E 011°47'0 0.0
2017-Oct-09 08:00N 57°40' E 011°47'0 0.0
2017-Oct-09 07:30N 57°40' E 011°47'1 1.1
2017-Oct-09 07:00N 57°41' E 011°48'4 7.5
2017-Oct-09 06:30N 57°42' E 011°55'3 6.5
2017-Oct-09 06:00N 57°44' E 011°60'2 4.3
2017-Oct-09 05:30N 57°46' E 012°00'3 6.5
2017-Oct-09 05:00N 57°49' E 012°01'3 5.8
2017-Oct-09 04:30N 57°52' E 012°01'4 8.7
2017-Oct-09 04:00N 57°56' E 012°04'4 7.1
2017-Oct-09 03:30N 57°59' E 012°08'13 5.9
2017-Oct-09 01:22N 58°12' E 012°07'4 9.1
2017-Oct-09 00:59N 58°14' E 012°12'2 5.0
2017-Oct-09 00:30N 58°16' E 012°15'0 0.2
2017-Oct-09 00:00N 58°16' E 012°15'0 0.5
2017-Oct-08 23:30N 58°16' E 012°16'1 1.9
2017-Oct-08 23:00N 58°17' E 012°17'3 6.4
2017-Oct-08 22:30N 58°20' E 012°20'1 2.2
2017-Oct-08 22:00N 58°20' E 012°21'1 2.5
2017-Oct-08 21:30N 58°21' E 012°20'2 4.3
2017-Oct-08 21:00N 58°24' E 012°19'4 8.8
2017-Oct-08 20:30N 58°27' E 012°24'510.1
2017-Oct-08 19:59N 58°31' E 012°32'  
Track history (hours):
 
Tides and Currents Weather Stations Pressure Air Temp Water Temp Dewpoint Dewpoint Depression Visibility Wind Speed Wind Dir Waves Ship Positions

Lecko

Last reported at 2017-Oct-17 10:18 UTC. Time now 2017-Oct-17 13:35 UTC.
Position N 57°25' E 017°40'.

Length 89 m; draft 6.1 m.

Type: Cargo ship. MMSI: 244063000.

Date/timePositionNaut miles runAvg speedWind from/ knotsBaromVisibWave heightAir tempDewpointWater temp
2017-Oct-17 10:18N 57°25' E 017°40'3 8.5
2017-Oct-17 09:56N 57°28' E 017°42'4 8.4
2017-Oct-17 09:30N 57°31' E 017°45'125 8.1
2017-Oct-16 18:00N 59°20' E 019°44'28 7.1
2017-Oct-16 14:00N 59°48' E 019°38'5 8.9
2017-Oct-16 13:29N 59°51' E 019°32'7 8.9
2017-Oct-16 12:42N 59°57' E 019°23'3 9.0
2017-Oct-16 12:24N 59°59' E 019°20'4 8.6
2017-Oct-16 11:59N 60°02' E 019°15'4 8.5
2017-Oct-16 11:30N 60°05' E 019°10'4 8.4
2017-Oct-16 11:00N 60°08' E 019°05'4 8.6
2017-Oct-16 10:30N 60°12' E 019°01'4 8.5
2017-Oct-16 10:00N 60°16' E 019°00'4 8.6
2017-Oct-16 09:30N 60°20' E 019°00'  
2017-Oct-11 19:49N 60°21' E 019°01'410.6
2017-Oct-11 19:27N 60°17' E 019°02'510.6
2017-Oct-11 19:00N 60°13' E 019°05'1310.3
2017-Oct-11 17:44N 60°03' E 019°20'310.5
2017-Oct-11 17:25N 60°00' E 019°25'410.1
2017-Oct-11 16:58N 59°56' E 019°30'298 9.2
2017-Oct-10 08:32N 55°33' E 015°11'310.3
2017-Oct-10 08:15N 55°31' E 015°07'210.4
2017-Oct-10 08:00N 55°30' E 015°03'510.3
2017-Oct-10 07:30N 55°28' E 014°55'510.4
2017-Oct-10 07:00N 55°25' E 014°47'510.2
2017-Oct-10 06:30N 55°22' E 014°39'510.3
2017-Oct-10 06:00N 55°19' E 014°33'510.4
2017-Oct-10 05:30N 55°15' E 014°27'13 9.7
2017-Oct-10 04:08N 55°11' E 014°05'3710.5
2017-Oct-10 00:38N 55°14' E 013°00'110.4
2017-Oct-10 00:29N 55°15' E 012°58'610.5
2017-Oct-09 23:57N 55°16' E 012°48'510.4
2017-Oct-09 23:30N 55°18' E 012°41'4 8.4
2017-Oct-09 23:00N 55°22' E 012°39'510.0
2017-Oct-09 22:30N 55°27' E 012°40'5 9.7
2017-Oct-09 22:00N 55°32' E 012°42'5 9.4
2017-Oct-09 21:30N 55°36' E 012°42'5 9.5
2017-Oct-09 21:00N 55°41' E 012°41'510.2
2017-Oct-09 20:30N 55°46' E 012°41'510.2
2017-Oct-09 20:00N 55°51' E 012°39'510.4
2017-Oct-09 19:30N 55°56' E 012°38'510.4
2017-Oct-09 19:00N 56°01' E 012°38'5 9.6
2017-Oct-09 18:30N 56°06' E 012°34'6810.6
2017-Oct-09 12:05N 57°10' E 011°53'210.9
2017-Oct-09 11:56N 57°11' E 011°52'611.0
2017-Oct-09 11:24N 57°17' E 011°48'410.5
2017-Oct-09 11:00N 57°20' E 011°45'510.7
2017-Oct-09 10:30N 57°25' E 011°42'510.6
2017-Oct-09 10:00N 57°30' E 011°38'510.1
2017-Oct-09 09:30N 57°35' E 011°39'510.1
2017-Oct-09 09:00N 57°39' E 011°45'2 3.3
2017-Oct-09 08:30N 57°40' E 011°47'0 0.0
2017-Oct-09 08:00N 57°40' E 011°47'0 0.0
2017-Oct-09 07:30N 57°40' E 011°47'1 1.1
2017-Oct-09 07:00N 57°41' E 011°48'4 7.5
2017-Oct-09 06:30N 57°42' E 011°55'3 6.5
2017-Oct-09 06:00N 57°44' E 011°60'2 4.3
2017-Oct-09 05:30N 57°46' E 012°00'3 6.5
2017-Oct-09 05:00N 57°49' E 012°01'3 5.8
2017-Oct-09 04:30N 57°52' E 012°01'4 8.7
2017-Oct-09 04:00N 57°56' E 012°04'4 7.1
2017-Oct-09 03:30N 57°59' E 012°08'13 5.9
2017-Oct-09 01:22N 58°12' E 012°07'4 9.1
2017-Oct-09 00:59N 58°14' E 012°12'2 5.0
2017-Oct-09 00:30N 58°16' E 012°15'0 0.2
2017-Oct-09 00:00N 58°16' E 012°15'0 0.5
2017-Oct-08 23:30N 58°16' E 012°16'1 1.9
2017-Oct-08 23:00N 58°17' E 012°17'3 6.4
2017-Oct-08 22:30N 58°20' E 012°20'1 2.2
2017-Oct-08 22:00N 58°20' E 012°21'1 2.5
2017-Oct-08 21:30N 58°21' E 012°20'2 4.3
2017-Oct-08 21:00N 58°24' E 012°19'4 8.8
2017-Oct-08 20:30N 58°27' E 012°24'510.1
2017-Oct-08 19:59N 58°31' E 012°32'  

Dump ship's entire track history